createdAt,value
2023-05-19T00:01:44.112Z,101014.59
2023-05-19T00:04:14.830Z,101008.69
2023-05-19T00:06:44.899Z,101006.78
2023-05-19T00:09:13.636Z,101007.97
2023-05-19T00:11:46.147Z,101006.78
2023-05-19T00:14:16.777Z,101004.78
2023-05-19T00:16:45.944Z,101002.19
2023-05-19T00:19:14.674Z,101003.06
2023-05-19T00:21:43.177Z,101003.06
2023-05-19T00:24:11.734Z,100999.47
2023-05-19T00:26:40.506Z,100998.41
2023-05-19T00:29:09.410Z,101001.03
2023-05-19T00:31:39.497Z,100993.38
2023-05-19T00:34:08.231Z,100995.31
2023-05-19T00:36:36.710Z,101003.25
2023-05-19T00:39:05.322Z,100992.88
2023-05-19T00:41:34.089Z,100994.63
2023-05-19T00:44:02.679Z,100991.13
2023-05-19T00:46:32.067Z,100993.59
2023-05-19T00:49:02.297Z,100994.56
2023-05-19T00:51:31.612Z,100999.81
2023-05-19T00:54:00.343Z,100999.81
2023-05-19T00:56:29.239Z,100991.03
2023-05-19T00:58:58.846Z,100992.72
2023-05-19T01:01:28.078Z,100990.97
2023-05-19T01:03:59.213Z,100990.72
2023-05-19T01:06:29.803Z,100988.94
2023-05-19T01:08:58.703Z,100987.16
2023-05-19T01:11:27.340Z,100986.41
2023-05-19T01:13:56.269Z,100983.06
2023-05-19T01:16:32.232Z,100991.69
2023-05-19T01:19:06.642Z,100986.47
2023-05-19T01:22:13.195Z,100982.34
2023-05-19T01:25:10.537Z,100990.47
2023-05-19T01:27:50.565Z,100991.25
2023-05-19T01:30:28.147Z,100986.78
2023-05-19T01:33:00.475Z,100981.97
2023-05-19T01:35:30.178Z,100984.06
2023-05-19T01:38:01.939Z,100985.88
2023-05-19T01:40:34.938Z,100989.38
2023-05-19T01:43:04.977Z,100976.19
2023-05-19T01:45:35.709Z,100989.72
2023-05-19T01:48:08.418Z,100975.97
2023-05-19T01:50:41.040Z,100974.19
2023-05-19T01:53:09.912Z,100977.06
2023-05-19T01:55:45.226Z,100971.91
2023-05-19T01:58:20.824Z,100970.81
2023-05-19T02:01:06.126Z,100974.38
2023-05-19T02:03:44.238Z,100977.03
2023-05-19T02:06:24.225Z,100975.97
2023-05-19T02:09:03.822Z,100979.44
2023-05-19T02:11:39.065Z,100982.19
2023-05-19T02:14:16.379Z,100977.03
2023-05-19T02:16:49.713Z,100973.56
2023-05-19T02:19:23.700Z,100970.94
2023-05-19T02:21:52.387Z,100971.84
2023-05-19T02:24:24.070Z,100963.97
2023-05-19T02:26:54.180Z,100970.94
2023-05-19T02:29:22.902Z,100971.59
2023-05-19T02:31:54.006Z,100962.22
2023-05-19T02:34:23.022Z,100964.84
2023-05-19T02:36:51.738Z,100963.88
2023-05-19T02:39:21.012Z,100969.00
2023-05-19T02:41:49.911Z,100971.75
2023-05-19T02:44:18.744Z,100972.59
2023-05-19T02:46:48.150Z,100972.88
2023-05-19T02:49:18.445Z,100970.84
2023-05-19T02:51:47.135Z,100961.56
2023-05-19T02:54:16.146Z,100974.38
2023-05-19T02:56:44.789Z,100973.53
2023-05-19T02:59:13.436Z,100968.47
2023-05-19T03:01:42.154Z,100976.09
2023-05-19T03:04:11.405Z,100969.00
2023-05-19T03:06:42.358Z,100976.19
2023-05-19T03:09:11.799Z,100977.81
2023-05-19T03:11:40.389Z,100975.78
2023-05-19T03:14:10.292Z,100982.66
2023-05-19T03:16:41.461Z,100967.91
2023-05-19T03:19:11.020Z,100967.88
2023-05-19T03:21:41.155Z,100965.38
2023-05-19T03:24:11.235Z,100976.75
2023-05-19T03:26:40.619Z,100975.88
2023-05-19T03:29:11.468Z,100975.34
2023-05-19T03:31:40.114Z,100978.16
2023-05-19T03:34:09.059Z,100977.28
2023-05-19T03:36:40.251Z,100975.47
2023-05-19T03:39:15.725Z,100986.72
2023-05-19T03:41:44.964Z,100978.81
2023-05-19T03:44:13.494Z,100989.31
2023-05-19T03:46:42.632Z,100986.50
2023-05-19T03:49:28.200Z,100986.38
2023-05-19T03:52:00.172Z,100987.09
2023-05-19T03:54:39.040Z,100991.59
2023-05-19T03:57:07.577Z,100989.91
2023-05-19T03:59:37.397Z,100988.03
2023-05-19T04:02:08.217Z,100992.31
2023-05-19T04:04:37.525Z,100991.44
2023-05-19T04:07:07.398Z,100989.63
2023-05-19T04:09:39.194Z,100982.69
2023-05-19T04:12:08.462Z,100990.53
2023-05-19T04:14:37.228Z,100992.19
2023-05-19T04:17:06.570Z,100995.22
2023-05-19T04:19:35.408Z,100998.00
2023-05-19T04:22:03.876Z,100995.53
2023-05-19T04:24:32.896Z,100998.63
2023-05-19T04:27:05.213Z,101003.91
2023-05-19T04:29:33.968Z,100996.94
2023-05-19T04:32:06.936Z,100991.94
2023-05-19T04:34:36.406Z,100995.28
2023-05-19T04:37:07.266Z,100992.47
2023-05-19T04:39:39.045Z,100995.00
2023-05-19T04:42:11.793Z,100994.03
2023-05-19T04:44:40.830Z,101002.41
2023-05-19T04:47:10.487Z,100988.25
2023-05-19T04:49:39.742Z,100996.00
2023-05-19T04:52:11.032Z,100995.00
2023-05-19T04:54:42.054Z,100994.72
2023-05-19T04:57:15.934Z,100997.34
2023-05-19T04:59:46.457Z,101001.16
2023-05-19T05:02:15.952Z,100995.53
2023-05-19T05:04:46.676Z,100997.06
2023-05-19T05:07:16.707Z,101005.13
2023-05-19T05:09:46.660Z,100995.63
2023-05-19T05:12:19.014Z,100998.75
2023-05-19T05:14:49.947Z,100997.25
2023-05-19T05:17:20.557Z,100998.56
2023-05-19T05:19:50.135Z,101002.72
2023-05-19T05:22:19.887Z,101002.91
2023-05-19T05:24:49.262Z,100998.91
2023-05-19T05:27:19.654Z,100995.84
2023-05-19T05:29:48.546Z,100996.75
2023-05-19T05:32:18.154Z,100998.13
2023-05-19T05:34:47.447Z,100990.34
2023-05-19T05:37:17.035Z,100991.09
2023-05-19T05:39:46.457Z,101002.00
2023-05-19T05:42:16.348Z,101004.56
2023-05-19T05:44:47.113Z,100994.91
2023-05-19T05:47:16.880Z,101004.59
2023-05-19T05:49:48.826Z,101002.94
2023-05-19T05:52:22.694Z,101007.41
2023-05-19T05:54:51.900Z,101008.81
2023-05-19T05:57:22.170Z,101003.31
2023-05-19T05:59:53.177Z,101009.06
2023-05-19T06:02:22.127Z,101008.91
2023-05-19T06:04:51.108Z,101007.81
2023-05-19T06:07:19.774Z,101015.50
2023-05-19T06:09:48.646Z,101005.84
2023-05-19T06:12:20.610Z,101005.66
2023-05-19T06:14:52.821Z,101010.81
2023-05-19T06:17:39.386Z,101011.53
2023-05-19T06:20:11.735Z,101006.66
2023-05-19T06:22:40.492Z,101006.16
2023-05-19T06:25:10.428Z,101009.81
2023-05-19T06:27:39.205Z,101014.16
2023-05-19T06:30:10.620Z,101008.97
2023-05-19T06:33:03.678Z,101012.41
2023-05-19T06:35:33.005Z,101009.78
2023-05-19T06:38:02.582Z,101012.69
2023-05-19T06:40:31.984Z,101012.19
2023-05-19T06:43:00.678Z,101007.69
2023-05-19T06:45:37.915Z,101010.53
2023-05-19T06:48:07.251Z,101015.81
2023-05-19T06:50:37.001Z,101003.69
2023-05-19T06:53:06.663Z,100999.59
2023-05-19T06:55:41.289Z,101007.31
2023-05-19T06:58:17.264Z,101010.59
2023-05-19T07:00:47.318Z,101001.41
2023-05-19T07:03:18.959Z,101007.84
2023-05-19T07:05:48.093Z,101008.00
2023-05-19T07:08:17.150Z,101015.53
2023-05-19T07:10:45.725Z,101007.56
2023-05-19T07:13:17.052Z,101013.91
2023-05-19T07:15:49.103Z,101016.81
2023-05-19T07:18:20.137Z,101014.16
2023-05-19T07:20:48.874Z,101019.16
2023-05-19T07:23:17.761Z,101016.28
2023-05-19T07:25:48.300Z,101014.03
2023-05-19T07:28:17.281Z,101013.75
2023-05-19T07:30:47.433Z,101021.25
2023-05-19T07:33:15.981Z,101018.38
2023-05-19T07:35:45.766Z,101020.94
2023-05-19T07:38:14.630Z,101020.09
2023-05-19T07:40:52.426Z,101020.94
2023-05-19T07:43:20.955Z,101018.03
2023-05-19T07:45:51.279Z,101018.13
2023-05-19T07:48:22.506Z,101013.84
2023-05-19T07:50:51.273Z,101016.13
2023-05-19T07:53:20.128Z,101012.47
2023-05-19T07:55:48.768Z,101015.75
2023-05-19T07:58:17.830Z,101007.50
2023-05-19T08:00:46.911Z,101015.69
2023-05-19T08:03:18.364Z,101004.13
2023-05-19T08:05:47.166Z,101017.19
2023-05-19T08:08:17.098Z,101001.41
2023-05-19T08:10:45.581Z,101004.25
2023-05-19T08:13:14.107Z,101001.69
2023-05-19T08:15:42.933Z,101006.69
2023-05-19T08:18:11.827Z,101010.34
2023-05-19T08:20:41.830Z,101011.81
2023-05-19T08:23:10.464Z,101016.97
2023-05-19T08:25:39.185Z,101016.66
2023-05-19T08:28:07.688Z,101011.38
2023-05-19T08:30:36.412Z,101013.88
2023-05-19T08:33:05.534Z,101012.50
2023-05-19T08:35:34.537Z,101014.06
2023-05-19T08:38:04.470Z,101024.25
2023-05-19T08:40:36.236Z,101030.34
2023-05-19T08:43:04.960Z,101026.34
2023-05-19T08:45:35.236Z,101029.97
2023-05-19T08:48:05.449Z,101030.13
2023-05-19T08:50:40.582Z,101024.38
2023-05-19T08:53:31.918Z,101022.94
2023-05-19T08:56:10.302Z,101030.94
2023-05-19T08:58:41.471Z,101023.69
2023-05-19T09:01:11.041Z,101024.22
2023-05-19T09:03:40.555Z,101021.81
2023-05-19T09:06:09.920Z,101022.75
2023-05-19T09:08:40.330Z,101026.84
2023-05-19T09:11:10.077Z,101031.06
2023-05-19T09:13:38.783Z,101028.34
2023-05-19T09:16:08.373Z,101037.31
2023-05-19T09:18:40.920Z,101030.31
2023-05-19T09:21:11.358Z,101023.31
2023-05-19T09:23:41.361Z,101019.91
2023-05-19T09:26:10.695Z,101022.06
2023-05-19T09:28:39.568Z,101030.47
2023-05-19T09:31:14.645Z,101019.59
2023-05-19T09:33:46.034Z,101023.75
2023-05-19T09:36:15.686Z,101024.69
2023-05-19T09:38:47.175Z,101022.97
2023-05-19T09:41:16.376Z,101021.47
2023-05-19T09:43:55.521Z,101021.47
2023-05-19T09:46:28.535Z,101010.47
2023-05-19T09:48:58.816Z,101017.00
2023-05-19T09:51:28.141Z,101020.66
2023-05-19T09:54:00.157Z,101020.50
2023-05-19T09:56:35.443Z,101017.56
2023-05-19T09:59:05.145Z,101026.19
2023-05-19T10:01:37.509Z,101025.09
2023-05-19T10:04:06.754Z,101014.44
2023-05-19T10:06:37.223Z,101017.78
2023-05-19T10:09:09.624Z,101020.91
2023-05-19T10:11:38.402Z,101012.56
2023-05-19T10:14:07.532Z,101008.44
2023-05-19T10:16:37.915Z,101009.03
2023-05-19T10:19:09.026Z,101006.19
2023-05-19T10:21:37.798Z,100995.75
2023-05-19T10:24:08.141Z,100999.19
2023-05-19T10:26:37.723Z,101003.75
2023-05-19T10:29:07.510Z,101002.59
2023-05-19T10:31:40.258Z,100995.50
2023-05-19T10:34:24.892Z,101002.03
2023-05-19T10:37:04.379Z,101002.72
2023-05-19T10:39:36.749Z,100998.50
2023-05-19T10:42:15.172Z,101002.44
2023-05-19T10:44:59.800Z,101010.97
2023-05-19T10:47:28.655Z,101003.44
2023-05-19T10:49:58.978Z,100999.03
2023-05-19T10:52:29.854Z,101007.91
2023-05-19T10:55:00.173Z,100999.09
2023-05-19T10:57:32.012Z,101002.00
2023-05-19T11:00:01.465Z,100997.81
2023-05-19T11:02:41.441Z,101003.25
2023-05-19T11:05:10.780Z,101004.13
2023-05-19T11:07:43.667Z,100999.38
2023-05-19T11:10:14.589Z,101006.19
2023-05-19T11:12:44.594Z,101003.44
2023-05-19T11:15:15.825Z,101007.81
2023-05-19T11:17:48.495Z,101005.16
2023-05-19T11:20:25.112Z,101011.41
2023-05-19T11:23:08.198Z,101009.09
2023-05-19T11:25:47.062Z,101009.22
2023-05-19T11:28:20.020Z,101003.50
2023-05-19T11:30:50.828Z,101009.03
2023-05-19T11:33:20.741Z,101006.31
2023-05-19T11:35:52.643Z,101010.81
2023-05-19T11:38:24.194Z,101009.38
2023-05-19T11:40:56.449Z,101017.03
2023-05-19T11:43:25.990Z,101012.38
2023-05-19T11:45:55.448Z,101015.31
2023-05-19T11:48:24.768Z,101016.09
2023-05-19T11:50:53.812Z,101012.66
2023-05-19T11:53:22.696Z,101012.94
2023-05-19T11:55:51.788Z,101019.19
2023-05-19T11:58:27.004Z,101015.75
2023-05-19T12:00:55.652Z,101013.97
2023-05-19T12:03:28.217Z,101013.88
2023-05-19T12:05:57.557Z,101015.66
2023-05-19T12:08:27.360Z,101012.78
2023-05-19T12:10:56.453Z,101012.25
2023-05-19T12:13:26.897Z,101019.22
2023-05-19T12:15:56.126Z,101011.28
2023-05-19T12:18:24.822Z,101020.00
2023-05-19T12:20:53.588Z,101024.22
2023-05-19T12:23:22.525Z,101021.84
2023-05-19T12:25:51.917Z,101017.97
2023-05-19T12:28:21.973Z,101018.72
2023-05-19T12:30:53.596Z,101015.00
2023-05-19T12:33:24.449Z,101008.66
2023-05-19T12:35:53.386Z,101015.75
2023-05-19T12:38:22.876Z,101011.47
2023-05-19T12:40:52.300Z,101006.56
2023-05-19T12:43:22.257Z,101015.78
2023-05-19T12:45:52.630Z,101013.88
2023-05-19T12:48:23.821Z,101015.31
2023-05-19T12:50:55.717Z,101012.78
2023-05-19T12:53:28.395Z,101010.28
2023-05-19T12:55:57.481Z,101005.75
2023-05-19T12:58:26.707Z,101014.50
2023-05-19T13:01:00.948Z,101009.66
2023-05-19T13:03:29.701Z,101006.81
2023-05-19T13:05:59.844Z,101013.41
2023-05-19T13:08:28.549Z,101015.66
2023-05-19T13:10:57.376Z,101007.63
2023-05-19T13:13:26.076Z,101007.16
2023-05-19T13:15:56.687Z,101005.88
2023-05-19T13:18:27.701Z,101004.50
2023-05-19T13:20:57.338Z,101012.94
2023-05-19T13:23:26.380Z,101015.50
2023-05-19T13:25:54.981Z,101010.88
2023-05-19T13:28:23.554Z,101011.75
2023-05-19T13:30:52.344Z,101012.59
2023-05-19T13:33:22.443Z,101010.22
2023-05-19T13:35:51.004Z,101012.78
2023-05-19T13:38:19.528Z,101009.13
2023-05-19T13:40:48.139Z,101007.16
2023-05-19T13:43:16.913Z,101006.78
2023-05-19T13:45:45.882Z,101005.66
2023-05-19T13:48:14.992Z,101006.47
2023-05-19T13:50:45.830Z,101001.31
2023-05-19T13:53:14.510Z,100998.81
2023-05-19T13:55:43.062Z,101006.69
2023-05-19T13:58:13.808Z,100995.34
2023-05-19T14:00:42.460Z,100996.09
2023-05-19T14:03:11.152Z,101001.41
2023-05-19T14:05:39.940Z,100997.59
2023-05-19T14:08:11.424Z,100997.50
2023-05-19T14:10:39.947Z,100996.78
2023-05-19T14:15:43.365Z,101010.28
2023-05-19T14:18:11.978Z,101003.41
2023-05-19T14:20:40.590Z,101014.94
2023-05-19T14:23:11.182Z,101007.16
2023-05-19T14:25:39.773Z,101010.13
2023-05-19T14:28:08.438Z,101011.22
2023-05-19T14:30:38.054Z,101013.25
2023-05-19T14:33:07.178Z,101013.88
2023-05-19T14:35:35.936Z,101015.25
2023-05-19T14:38:07.480Z,101013.28
2023-05-19T14:40:41.474Z,101017.75
2023-05-19T14:43:10.247Z,101012.94
2023-05-19T14:45:43.506Z,101003.09
2023-05-19T14:48:12.625Z,101006.41
2023-05-19T14:50:41.405Z,101006.22
2023-05-19T14:53:10.148Z,101010.13
2023-05-19T14:55:40.904Z,101013.06
2023-05-19T14:58:27.000Z,101015.09
2023-05-19T15:00:59.390Z,101016.91
2023-05-19T15:03:28.127Z,101027.59
2023-05-19T15:05:56.726Z,101021.50
2023-05-19T15:08:25.700Z,101022.44
2023-05-19T15:10:55.748Z,101018.41
2023-05-19T15:13:26.406Z,101019.66
2023-05-19T15:16:08.361Z,101023.41
2023-05-19T15:18:45.702Z,101018.13
2023-05-19T15:21:14.565Z,101025.31
2023-05-19T15:23:43.268Z,101018.28
2023-05-19T15:26:13.550Z,101024.91
2023-05-19T15:28:42.302Z,101011.94
2023-05-19T15:31:11.276Z,101013.78
2023-05-19T15:33:40.112Z,101017.53
2023-05-19T15:36:09.403Z,101008.97
2023-05-19T15:38:38.292Z,101010.69
2023-05-19T15:41:09.027Z,101010.78
2023-05-19T15:43:38.994Z,101015.22
2023-05-19T15:46:07.863Z,101016.84
2023-05-19T15:48:37.620Z,101003.69
2023-05-19T15:51:06.391Z,101005.56
2023-05-19T15:53:34.940Z,101003.13
2023-05-19T15:56:04.717Z,101004.84
2023-05-19T15:58:33.605Z,101001.44
2023-05-19T16:01:04.473Z,100999.88
2023-05-19T16:03:33.464Z,101002.53
2023-05-19T16:06:02.740Z,101001.03
2023-05-19T16:08:33.309Z,101001.97
2023-05-19T16:11:02.174Z,101003.00
2023-05-19T16:13:33.720Z,101004.88
2023-05-19T16:16:04.006Z,101006.78
2023-05-19T16:18:32.623Z,101012.00
2023-05-19T16:21:01.424Z,101006.44
2023-05-19T16:23:30.129Z,101015.84
2023-05-19T16:25:58.830Z,101020.19
2023-05-19T16:28:28.845Z,101013.81
2023-05-19T16:30:59.622Z,101011.31
2023-05-19T16:33:33.226Z,101014.09
2023-05-19T16:36:01.846Z,101014.84
2023-05-19T16:38:34.199Z,101008.69
2023-05-19T16:41:04.545Z,101005.28
2023-05-19T16:43:34.008Z,101008.34
2023-05-19T16:46:04.372Z,101005.63
2023-05-19T16:48:34.456Z,101007.25
2023-05-19T16:51:03.234Z,101000.34
2023-05-19T16:53:32.439Z,101003.72
2023-05-19T16:56:01.149Z,100998.09
2023-05-19T16:58:31.045Z,101003.38
2023-05-19T17:00:59.884Z,101000.59
2023-05-19T17:03:28.740Z,101003.25
2023-05-19T17:05:59.167Z,101006.78
2023-05-19T17:08:27.828Z,101006.03
2023-05-19T17:10:56.308Z,100993.88
2023-05-19T17:13:25.177Z,101004.47
2023-05-19T17:15:53.741Z,101011.72
2023-05-19T17:18:23.966Z,101007.50
2023-05-19T17:20:52.736Z,101012.59
2023-05-19T17:23:23.484Z,101016.31
2023-05-19T17:25:55.868Z,101010.59
2023-05-19T17:28:25.581Z,101011.59
2023-05-19T17:30:54.491Z,101012.47
2023-05-19T17:33:24.174Z,101014.19
2023-05-19T17:35:53.172Z,101014.38
2023-05-19T17:38:23.597Z,101011.91
2023-05-19T17:40:53.647Z,101017.19
2023-05-19T17:43:22.593Z,101014.75
2023-05-19T17:45:51.385Z,101019.19
2023-05-19T17:48:20.086Z,101031.88
2023-05-19T17:50:49.265Z,101024.13
2023-05-19T17:53:18.278Z,101025.22
2023-05-19T17:55:52.500Z,101028.03
2023-05-19T17:58:21.631Z,101018.34
2023-05-19T18:00:51.256Z,101017.59
2023-05-19T18:03:20.637Z,101026.66
2023-05-19T18:05:50.052Z,101025.38
2023-05-19T18:08:19.397Z,101018.28
2023-05-19T18:10:51.744Z,101029.69
2023-05-19T18:13:21.534Z,101025.31
2023-05-19T18:15:52.812Z,101026.97
2023-05-19T18:18:21.501Z,101034.97
2023-05-19T18:20:50.077Z,101028.03
2023-05-19T18:23:19.823Z,101030.69
2023-05-19T18:25:53.438Z,101030.41
2023-05-19T18:28:22.500Z,101039.41
2023-05-19T18:31:00.438Z,101029.84
2023-05-19T18:33:30.936Z,101034.13
2023-05-19T18:36:00.150Z,101037.69
2023-05-19T18:38:29.153Z,101039.53
2023-05-19T18:41:00.915Z,101037.81
2023-05-19T18:43:30.262Z,101046.44
2023-05-19T18:45:59.000Z,101048.19
2023-05-19T18:48:27.581Z,101046.38
2023-05-19T18:50:57.483Z,101050.84
2023-05-19T18:53:27.302Z,101051.53
2023-05-19T18:55:59.430Z,101046.88
2023-05-19T18:58:28.808Z,101051.53
2023-05-19T19:00:57.969Z,101052.47
2023-05-19T19:03:26.827Z,101058.66
2023-05-19T19:05:56.384Z,101062.16
2023-05-19T19:08:25.135Z,101063.16
2023-05-19T19:10:59.299Z,101064.03
2023-05-19T19:13:29.800Z,101066.69
2023-05-19T19:15:58.541Z,101065.81
2023-05-19T19:18:27.379Z,101072.44
2023-05-19T19:20:57.461Z,101066.34
2023-05-19T19:23:26.450Z,101065.59
2023-05-19T19:25:56.736Z,101071.81
2023-05-19T19:28:26.592Z,101073.22
2023-05-19T19:30:57.182Z,101070.66
2023-05-19T19:33:25.998Z,101071.59
2023-05-19T19:35:54.924Z,101072.28
2023-05-19T19:38:23.858Z,101074.94
2023-05-19T19:40:52.713Z,101074.09
2023-05-19T19:43:21.411Z,101069.50
2023-05-19T19:45:49.972Z,101073.75
2023-05-19T19:48:20.029Z,101075.38
2023-05-19T19:50:53.016Z,101075.50
2023-05-19T19:53:22.548Z,101078.09
2023-05-19T19:55:59.112Z,101081.78
2023-05-19T19:58:28.620Z,101079.09
2023-05-19T20:00:58.391Z,101080.16
2023-05-19T20:03:29.199Z,101085.22
2023-05-19T20:05:58.271Z,101081.59
2023-05-19T20:08:27.409Z,101082.38
2023-05-19T20:10:56.181Z,101091.28
2023-05-19T20:13:24.797Z,101093.81
2023-05-19T20:15:53.459Z,101096.50
2023-05-19T20:18:22.029Z,101094.75
2023-05-19T20:20:53.408Z,101098.63
2023-05-19T20:23:22.029Z,101100.63
2023-05-19T20:26:10.310Z,101097.00
2023-05-19T20:28:39.706Z,101098.97
2023-05-19T20:31:08.656Z,101094.34
2023-05-19T20:33:37.321Z,101093.28
2023-05-19T20:36:08.377Z,101097.78
2023-05-19T20:38:36.998Z,101094.09
2023-05-19T20:41:06.111Z,101096.06
2023-05-19T20:43:34.847Z,101095.00
2023-05-19T20:46:04.234Z,101098.50
2023-05-19T20:48:33.122Z,101094.09
2023-05-19T20:51:01.753Z,101094.50
2023-05-19T20:53:31.899Z,101096.06
2023-05-19T20:56:00.533Z,101094.09
2023-05-19T20:58:30.461Z,101092.72
2023-05-19T21:00:59.170Z,101095.41
2023-05-19T21:03:28.745Z,101095.50
2023-05-19T21:05:57.867Z,101088.47
2023-05-19T21:08:27.075Z,101086.84
2023-05-19T21:10:57.568Z,101088.66
2023-05-19T21:13:27.152Z,101084.19
2023-05-19T21:15:57.979Z,101086.19
2023-05-19T21:18:29.712Z,101084.34
2023-05-19T21:20:58.217Z,101087.78
2023-05-19T21:23:27.075Z,101075.50
2023-05-19T21:25:58.481Z,101078.91
2023-05-19T21:28:27.214Z,101082.44
2023-05-19T21:30:55.802Z,101086.19
2023-05-19T21:33:24.417Z,101085.19
2023-05-19T21:35:52.936Z,101089.47
2023-05-19T21:38:25.849Z,101077.22
2023-05-19T21:40:56.216Z,101081.50
2023-05-19T21:43:26.231Z,101081.50
2023-05-19T21:45:54.917Z,101079.66
2023-05-19T21:48:23.422Z,101080.56
2023-05-19T21:50:55.616Z,101075.28
2023-05-19T21:53:24.238Z,101088.44
2023-05-19T21:55:52.820Z,101077.91
2023-05-19T21:58:22.892Z,101080.38
2023-05-19T22:00:51.981Z,101075.09
2023-05-19T22:03:20.738Z,101072.38
2023-05-19T22:05:53.859Z,101075.78
2023-05-19T22:08:23.616Z,101069.38
2023-05-19T22:10:53.710Z,101067.09
2023-05-19T22:13:23.836Z,101066.09
2023-05-19T22:15:52.397Z,101063.00
2023-05-19T22:18:21.627Z,101066.53
2023-05-19T22:20:50.168Z,101059.53
2023-05-19T22:23:18.897Z,101051.63
2023-05-19T22:25:47.586Z,101053.56
2023-05-19T22:28:16.149Z,101061.38
2023-05-19T22:30:46.181Z,101061.38
2023-05-19T22:33:15.175Z,101059.53
2023-05-19T22:35:44.108Z,101061.38
2023-05-19T22:38:13.058Z,101060.50
2023-05-19T22:40:41.898Z,101064.94
2023-05-19T22:43:10.713Z,101073.22
2023-05-19T22:45:39.392Z,101066.22
2023-05-19T22:48:09.879Z,101064.53
2023-05-19T22:50:39.209Z,101058.94
2023-05-19T22:53:07.802Z,101064.09
2023-05-19T22:55:36.626Z,101061.97
2023-05-19T22:58:05.160Z,101065.38
2023-05-19T23:00:33.933Z,101051.66
2023-05-19T23:03:02.776Z,101055.31
2023-05-19T23:05:32.855Z,101049.09
2023-05-19T23:08:01.574Z,101053.53
2023-05-19T23:10:30.006Z,101051.84
2023-05-19T23:12:59.030Z,101056.25
2023-05-19T23:15:27.554Z,101049.97
2023-05-19T23:17:56.097Z,101048.38
2023-05-19T23:20:24.594Z,101048.50
2023-05-19T23:22:54.399Z,101055.53
2023-05-19T23:25:23.088Z,101058.38
2023-05-19T23:27:51.490Z,101052.09
2023-05-19T23:30:20.095Z,101051.97
2023-05-19T23:32:48.614Z,101055.94
2023-05-19T23:35:18.641Z,101053.66
2023-05-19T23:37:47.119Z,101053.47
2023-05-19T23:40:17.522Z,101051.03
2023-05-19T23:42:46.022Z,101058.66
2023-05-19T23:45:14.715Z,101051.81
2023-05-19T23:47:43.305Z,101059.78
2023-05-19T23:50:12.136Z,101051.03
2023-05-19T23:52:40.589Z,101045.75
2023-05-19T23:55:10.238Z,101052.66
2023-05-19T23:57:40.228Z,101054.38
